Time;durP1;ratioP1;P1;durP2;ratioP2;P2;SDS_P1;SDS_P2;PMS_P1;PMS_P2;Temp;Humidity;BMP_temperature;BMP_pressure;BME280_temperature;BME280_humidity;BME280_pressure;Samples;Min_cycle;Max_cycle;Signal;HPM_P1;HPM_P2
2022/02/28 00:00:23;;;;;;;0.80;0.50;;;;;;;2.34;100.00;100381.31;5012011;28;20472;-67
2022/02/28 00:02:49;;;;;;;0.85;0.60;;;;;;;2.35;100.00;100360.44;5012053;28;20042;-66
2022/02/28 00:05:14;;;;;;;0.85;0.30;;;;;;;2.42;100.00;100389.78;5012343;28;20022;-67
2022/02/28 00:07:40;;;;;;;0.50;0.40;;;;;;;2.19;100.00;100326.84;5012286;28;20025;-69
2022/02/28 00:10:07;;;;;;;0.47;0.30;;;;;;;2.51;100.00;100360.63;5010549;28;20025;-68
2022/02/28 00:12:32;;;;;;;0.50;0.50;;;;;;;2.18;100.00;100334.34;5012239;28;20484;-68
2022/02/28 00:14:58;;;;;;;0.80;0.55;;;;;;;2.33;100.00;100322.81;5011994;28;20068;-68
2022/02/28 00:17:24;;;;;;;1.15;0.60;;;;;;;2.44;100.00;100337.94;5011736;28;20385;-69
2022/02/28 00:19:49;;;;;;;0.57;0.43;;;;;;;2.39;100.00;100332.91;5010816;28;20065;-68
2022/02/28 00:22:14;;;;;;;1.08;0.60;;;;;;;2.61;100.00;100361.56;5010650;28;20125;-68
2022/02/28 00:24:40;;;;;;;1.40;0.75;;;;;;;2.49;100.00;100351.41;5012042;28;20474;-66
2022/02/28 00:27:05;;;;;;;1.30;0.80;;;;;;;2.48;100.00;100353.06;5011814;28;20033;-68
2022/02/28 00:29:31;;;;;;;1.88;0.85;;;;;;;2.59;100.00;100343.97;5011959;28;20088;-68
2022/02/28 00:31:56;;;;;;;0.93;0.70;;;;;;;2.49;100.00;100353.91;5011524;28;20114;-70
2022/02/28 00:34:22;;;;;;;1.92;0.80;;;;;;;2.45;100.00;100353.03;5010630;28;20476;-69
2022/02/28 00:36:47;;;;;;;0.73;0.55;;;;;;;2.30;100.00;100322.75;5010791;28;20030;-68
2022/02/28 00:39:13;;;;;;;0.80;0.57;;;;;;;2.16;100.00;100295.88;5011774;28;20026;-68
2022/02/28 00:41:38;;;;;;;1.90;0.68;;;;;;;2.29;100.00;100320.25;5011751;28;20128;-69
2022/02/28 00:44:04;;;;;;;0.77;0.50;;;;;;;2.59;100.00;100346.47;5011887;28;20022;-69
2022/02/28 00:46:29;;;;;;;1.33;0.70;;;;;;;2.48;100.00;100317.09;5011644;28;20121;-69
2022/02/28 00:48:55;;;;;;;1.42;0.60;;;;;;;2.51;100.00;100320.50;5010252;28;20033;-68
2022/02/28 00:51:20;;;;;;;0.95;0.60;;;;;;;2.55;100.00;100343.94;5011585;28;20397;-71
2022/02/28 00:53:46;;;;;;;0.93;0.73;;;;;;;2.54;100.00;100330.53;5011673;28;20065;-71
2022/02/28 00:56:11;;;;;;;0.50;0.50;;;;;;;2.85;100.00;100340.88;5011501;28;20034;-69
2022/02/28 00:58:37;;;;;;;0.98;0.60;;;;;;;2.58;100.00;100308.84;5011596;28;20037;-68
2022/02/28 01:03:38;;;;;;;1.05;0.40;;;;;;;2.65;100.00;100318.13;4012487;28;10000381;-70
2022/02/28 01:06:03;;;;;;;0.77;0.30;;;;;;;2.83;100.00;100345.03;5002314;28;20065;-70
2022/02/28 01:08:29;;;;;;;0.85;0.40;;;;;;;2.79;100.00;100335.81;5011238;28;20419;-68
2022/02/28 01:10:54;;;;;;;0.50;0.22;;;;;;;2.75;100.00;100321.53;5009854;28;20029;-70
2022/02/28 01:13:20;;;;;;;0.50;0.30;;;;;;;2.70;100.00;100335.69;5007943;28;20030;-70
2022/02/28 01:15:45;;;;;;;0.90;0.40;;;;;;;2.86;100.00;100342.53;4994150;28;20037;-70
2022/02/28 01:18:11;;;;;;;0.40;0.30;;;;;;;2.89;100.00;100363.50;4991556;28;20037;-70
2022/02/28 01:20:37;;;;;;;0.40;0.30;;;;;;;2.91;100.00;100364.34;5006828;28;20029;-70
2022/02/28 01:23:03;;;;;;;0.57;0.50;;;;;;;2.67;100.00;100314.78;5011655;28;20116;-70
2022/02/28 01:25:29;;;;;;;0.70;0.40;;;;;;;2.85;100.00;100324.16;5009738;28;20038;-70
2022/02/28 01:27:54;;;;;;;1.30;0.60;;;;;;;2.88;100.00;100339.22;5005967;28;20058;-70
2022/02/28 01:30:20;;;;;;;0.88;0.50;;;;;;;2.77;100.00;100325.75;4991510;28;20062;-71
2022/02/28 01:32:46;;;;;;;0.70;0.50;;;;;;;2.73;100.00;100326.56;5006747;28;20034;-69
2022/02/28 01:35:12;;;;;;;1.40;0.50;;;;;;;2.75;100.00;100326.56;4998191;28;20112;-70
2022/02/28 01:37:39;;;;;;;0.70;0.40;;;;;;;2.75;100.00;100331.59;5003967;28;20121;-70
2022/02/28 01:40:07;;;;;;;1.02;0.63;;;;;;;2.97;100.00;100369.41;5000296;28;20092;-68
2022/02/28 01:42:33;;;;;;;0.73;0.40;;;;;;;2.95;100.00;100358.53;4997119;28;20038;-71
2022/02/28 01:44:58;;;;;;;0.60;0.35;;;;;;;2.72;100.00;100321.50;5014426;28;20037;-69
2022/02/28 01:47:24;;;;;;;0.50;0.40;;;;;;;2.91;100.00;100338.41;5010016;28;20034;-70
2022/02/28 01:49:50;;;;;;;1.38;0.40;;;;;;;2.70;100.00;100313.97;4995033;28;20492;-69
2022/02/28 01:52:15;;;;;;;0.80;0.40;;;;;;;2.91;100.00;100359.31;4994979;28;20440;-69
2022/02/28 01:54:43;;;;;;;0.35;0.32;;;;;;;2.98;100.00;100368.59;5014318;28;20030;-69
2022/02/28 01:57:09;;;;;;;0.98;0.40;;;;;;;2.79;100.00;100331.63;5008006;28;20088;-69
2022/02/28 01:59:34;;;;;;;0.75;0.30;;;;;;;2.82;100.00;100349.22;4994914;28;20113;-71
2022/02/28 02:02:00;;;;;;;0.70;0.40;;;;;;;2.76;100.00;100354.16;5013549;28;20074;-69
2022/02/28 02:04:25;;;;;;;1.10;0.50;;;;;;;2.69;100.00;100311.44;5014735;28;20026;-66
2022/02/28 02:06:52;;;;;;;1.52;0.35;;;;;;;2.89;100.00;100325.88;5014288;28;20026;-69
2022/02/28 02:09:18;;;;;;;0.77;0.50;;;;;;;3.05;100.00;100351.94;5013678;28;20038;-68
2022/02/28 02:11:44;;;;;;;1.85;0.50;;;;;;;3.12;100.00;100359.53;5014161;28;20080;-70
2022/02/28 02:14:10;;;;;;;0.90;0.40;;;;;;;3.24;100.00;100358.78;5014096;28;20041;-68
2022/02/28 02:16:36;;;;;;;0.68;0.40;;;;;;;3.08;100.00;100350.28;5014256;28;20038;-68
2022/02/28 02:19:01;;;;;;;1.05;0.20;;;;;;;3.16;100.00;100355.34;5009452;28;20463;-67
2022/02/28 02:21:28;;;;;;;0.85;0.30;;;;;;;2.99;100.00;100325.06;5000732;28;20030;-69
2022/02/28 02:23:53;;;;;;;0.60;0.40;;;;;;;2.89;100.00;100305.78;4995367;28;20511;-69
2022/02/28 02:26:20;;;;;;;0.40;0.20;;;;;;;3.24;100.00;100359.63;4995883;28;20026;-69
2022/02/28 02:28:45;;;;;;;0.80;0.40;;;;;;;3.17;100.00;100352.84;5012839;28;20038;-68
2022/02/28 02:31:11;;;;;;;0.20;0.20;;;;;;;3.26;100.00;100362.97;5014115;28;20053;-69
2022/02/28 02:33:38;;;;;;;0.20;0.20;;;;;;;3.17;100.00;100367.09;5013959;28;20463;-69
2022/02/28 02:36:06;;;;;;;1.65;0.20;;;;;;;3.13;100.00;100355.34;5011972;28;20088;-69
2022/02/28 02:38:34;;;;;;;0.43;0.25;;;;;;;3.23;100.00;100362.94;5013457;28;20114;-69
2022/02/28 02:41:01;;;;;;;0.47;0.22;;;;;;;3.24;100.00;100363.78;5014001;28;20030;-69
2022/02/28 02:43:26;;;;;;;0.50;0.30;;;;;;;3.06;100.00;100319.28;5014156;28;20030;-69
2022/02/28 02:45:52;;;;;;;0.20;0.20;;;;;;;3.13;100.00;100333.56;5013928;28;20053;-69
2022/02/28 02:48:23;;;;;;;0.35;0.13;;;;;;;3.18;100.00;100334.44;5013852;28;20427;-70
2022/02/28 02:50:50;;;;;;;0.20;0.20;;;;;;;3.16;100.00;100341.13;5011028;28;20121;-69
2022/02/28 02:53:16;;;;;;;0.45;0.28;;;;;;;3.19;100.00;100328.59;5013377;28;20033;-69
2022/02/28 02:55:43;;;;;;;0.50;0.30;;;;;;;3.13;100.00;100317.69;5013720;28;20096;-69
2022/02/28 02:58:08;;;;;;;0.50;0.40;;;;;;;3.34;100.00;100346.31;5013825;28;20041;-70
2022/02/28 03:00:35;;;;;;;0.20;0.20;;;;;;;3.37;100.00;100350.47;5013447;28;20033;-69
2022/02/28 03:03:00;;;;;;;1.40;0.30;;;;;;;3.49;100.00;100358.09;5013269;28;20049;-69
2022/02/28 03:05:26;;;;;;;0.47;0.30;;;;;;;3.46;100.00;100346.38;5012081;28;20038;-68
2022/02/28 03:07:52;;;;;;;0.98;0.50;;;;;;;3.29;100.00;100317.78;4993688;28;20069;-68
2022/02/28 03:10:18;;;;;;;0.95;0.50;;;;;;;3.61;100.00;100343.09;5009823;28;20487;-69
2022/02/28 03:12:44;;;;;;;0.75;0.57;;;;;;;3.36;100.00;100341.28;5013023;28;20034;-69
2022/02/28 03:15:10;;;;;;;1.23;0.80;;;;;;;3.29;100.00;100339.53;5013368;28;20030;-68
2022/02/28 03:17:36;;;;;;;0.68;0.50;;;;;;;3.25;100.00;100338.69;5013235;28;20026;-69
2022/02/28 03:20:02;;;;;;;0.52;0.40;;;;;;;3.32;100.00;100347.97;5012990;28;20415;-69
2022/02/28 03:22:27;;;;;;;0.52;0.40;;;;;;;3.31;100.00;100335.38;5013209;28;20483;-70
2022/02/28 03:24:53;;;;;;;0.63;0.30;;;;;;;3.13;100.00;100322.69;5013288;28;20025;-69
2022/02/28 03:27:18;;;;;;;0.57;0.40;;;;;;;3.40;100.00;100336.28;5012886;28;20034;-69
2022/02/28 03:29:44;;;;;;;0.40;0.30;;;;;;;3.26;100.00;100306.88;5012898;28;20087;-69
2022/02/28 03:32:09;;;;;;;0.60;0.40;;;;;;;3.25;100.00;100310.19;5012725;28;20476;-69
2022/02/28 03:34:35;;;;;;;0.68;0.40;;;;;;;3.65;100.00;100349.81;5012807;28;20045;-69
2022/02/28 03:37:00;;;;;;;0.80;0.40;;;;;;;3.34;100.00;100323.69;5012286;28;20034;-66
2022/02/28 03:39:26;;;;;;;0.43;0.40;;;;;;;3.47;100.00;100365.63;5012783;28;20037;-69
2022/02/28 03:41:53;;;;;;;0.50;0.40;;;;;;;3.07;100.00;100302.56;5012877;28;20116;-69
2022/02/28 03:44:19;;;;;;;1.00;0.57;;;;;;;3.18;100.00;100313.50;5012650;28;20107;-70
2022/02/28 03:46:45;;;;;;;0.77;0.52;;;;;;;3.35;100.00;100345.44;5012522;28;20072;-69
2022/02/28 03:49:10;;;;;;;0.47;0.40;;;;;;;3.22;100.00;100328.63;5011220;28;20463;-70
2022/02/28 03:51:36;;;;;;;0.45;0.40;;;;;;;3.52;100.00;100325.47;5012358;28;20129;-70
2022/02/28 03:54:01;;;;;;;0.50;0.40;;;;;;;3.71;100.00;100344.84;5011199;28;20407;-70
2022/02/28 03:56:27;;;;;;;0.30;0.30;;;;;;;3.59;100.00;100356.47;5012436;28;20026;-69
2022/02/28 03:58:52;;;;;;;0.70;0.50;;;;;;;3.19;100.00;100323.56;5012351;28;20034;-69
2022/02/28 04:01:17;;;;;;;0.60;0.40;;;;;;;3.21;100.00;100304.31;5010817;28;20393;-69
2022/02/28 04:03:43;;;;;;;0.80;0.40;;;;;;;3.37;100.00;100350.47;4992461;28;20046;-69
2022/02/28 04:06:08;;;;;;;1.02;0.70;;;;;;;3.23;100.00;100302.66;4992075;28;20033;-69
2022/02/28 04:08:34;;;;;;;0.77;0.50;;;;;;;3.02;100.00;100282.44;4992796;28;20268;-69
2022/02/28 04:10:59;;;;;;;1.05;0.50;;;;;;;3.17;100.00;100321.91;4992699;28;20053;-70
2022/02/28 04:13:25;;;;;;;1.05;0.50;;;;;;;3.17;100.00;100306.81;4992488;28;20041;-69
2022/02/28 04:15:50;;;;;;;1.02;0.52;;;;;;;3.36;100.00;100323.69;4992753;28;20105;-69
2022/02/28 04:18:15;;;;;;;1.13;0.77;;;;;;;3.57;100.00;100350.59;4992346;28;20031;-69
2022/02/28 04:20:41;;;;;;;0.70;0.50;;;;;;;3.61;100.00;100319.63;4991954;28;20035;-69
2022/02/28 04:23:06;;;;;;;1.20;0.73;;;;;;;3.41;100.00;100294.41;4992488;28;20033;-69
2022/02/28 04:25:32;;;;;;;1.10;0.88;;;;;;;3.41;100.00;100322.88;4992583;28;20030;-70
2022/02/28 04:27:57;;;;;;;1.10;0.80;;;;;;;3.61;100.00;100334.72;5008580;28;20045;-69
2022/02/28 04:30:23;;;;;;;2.25;0.80;;;;;;;3.74;100.00;100351.56;5011714;28;20496;-69
2022/02/28 04:32:48;;;;;;;0.68;0.60;;;;;;;3.65;100.00;100326.34;5012031;28;20120;-68
2022/02/28 04:35:13;;;;;;;3.45;0.70;;;;;;;3.77;100.00;100349.91;5010619;28;20471;-67
2022/02/28 04:37:39;;;;;;;1.60;0.90;;;;;;;3.52;100.00;100315.41;5011768;28;20490;-69
2022/02/28 04:40:05;;;;;;;2.08;0.73;;;;;;;3.62;100.00;100332.22;5011818;28;20393;-69
2022/02/28 04:42:31;;;;;;;1.55;0.90;;;;;;;3.72;100.00;100365.78;5011501;28;20096;-69
2022/02/28 04:44:56;;;;;;;3.95;1.60;;;;;;;3.60;100.00;100326.34;5005965;28;20030;-64
2022/02/28 04:47:23;;;;;;;1.98;1.10;;;;;;;3.83;100.00;100356.63;5009485;28;20463;-68
2022/02/28 04:49:48;;;;;;;1.38;1.08;;;;;;;3.53;100.00;100316.25;5004766;28;20034;-68
2022/02/28 04:52:14;;;;;;;1.10;0.90;;;;;;;3.65;100.00;100331.38;4995548;28;21058;-69
2022/02/28 04:54:39;;;;;;;1.70;1.20;;;;;;;3.64;100.00;100345.66;5011481;28;20483;-70
2022/02/28 04:57:05;;;;;;;3.53;2.03;;;;;;;3.82;100.00;100375.06;5003193;28;20034;-69
2022/02/28 04:59:30;;;;;;;2.40;1.50;;;;;;;3.81;100.00;100371.72;4991498;28;20026;-69
2022/02/28 05:01:56;;;;;;;1.60;1.10;;;;;;;3.70;100.00;100340.66;4999474;28;20061;-69
2022/02/28 05:04:21;;;;;;;2.00;0.93;;;;;;;3.81;100.00;100376.72;5010812;28;20026;-67
2022/02/28 05:06:46;;;;;;;1.20;0.82;;;;;;;3.91;100.00;100390.19;5011277;28;20034;-71
2022/02/28 05:09:12;;;;;;;2.65;1.30;;;;;;;3.67;100.00;100344.81;5011967;28;20121;-71
2022/02/28 05:11:37;;;;;;;1.77;1.20;;;;;;;3.81;100.00;100380.91;5011672;28;20044;-70
2022/02/28 05:14:03;;;;;;;2.17;1.52;;;;;;;3.66;100.00;100366.59;5010950;28;20033;-71
2022/02/28 05:16:28;;;;;;;2.28;1.52;;;;;;;3.70;100.00;100377.50;5011395;28;20033;-70
2022/02/28 05:18:53;;;;;;;1.55;1.20;;;;;;;3.54;100.00;100359.81;5011546;28;20053;-70
2022/02/28 05:21:19;;;;;;;1.40;1.10;;;;;;;3.58;100.00;100364.88;5011053;28;20038;-72
2022/02/28 05:23:44;;;;;;;1.50;1.00;;;;;;;3.84;100.00;100401.91;5011920;28;20109;-71
2022/02/28 05:26:10;;;;;;;1.48;1.10;;;;;;;3.66;100.00;100350.69;5011592;28;20080;-71
2022/02/28 05:28:36;;;;;;;1.33;1.00;;;;;;;3.66;100.00;100365.75;5011798;28;20030;-69
2022/02/28 05:31:01;;;;;;;1.63;1.00;;;;;;;3.80;100.00;100381.75;5012032;28;20033;-72
2022/02/28 05:33:27;;;;;;;1.95;1.20;;;;;;;3.64;100.00;100377.47;5010810;28;20456;-72
2022/02/28 05:35:52;;;;;;;1.50;1.10;;;;;;;3.81;100.00;100406.06;4991925;28;20100;-76
2022/02/28 05:38:17;;;;;;;2.28;1.00;;;;;;;3.56;100.00;100366.53;4991681;28;20077;-74
2022/02/28 05:40:43;;;;;;;1.80;1.23;;;;;;;3.53;100.00;100358.97;4992047;28;20405;-73
2022/02/28 05:43:08;;;;;;;2.85;1.55;;;;;;;3.86;100.00;100424.53;4990741;28;20045;-72
2022/02/28 05:45:36;;;;;;;3.67;1.65;;;;;;;4.12;100.00;100407.94;5002107;28;20073;-73
2022/02/28 05:48:04;;;;;;;1.80;1.35;;;;;;;3.90;100.00;100433.78;5005718;28;20030;-73
2022/02/28 05:50:30;;;;;;;4.90;2.63;;;;;;;3.70;100.00;100392.59;5009425;28;20032;-73
2022/02/28 05:52:56;;;;;;;3.03;1.30;;;;;;;3.89;100.00;100422.88;5043296;28;20026;-73
2022/02/28 05:55:22;;;;;;;2.00;1.23;;;;;;;3.96;100.00;100441.38;5009677;28;20030;-72
2022/02/28 05:57:48;;;;;;;5.55;2.70;;;;;;;3.91;100.00;100448.03;5010870;28;20022;-73
2022/02/28 06:00:14;;;;;;;3.15;1.90;;;;;;;3.49;100.00;100386.59;5010268;28;20025;-73
2022/02/28 06:02:40;;;;;;;2.80;1.80;;;;;;;3.67;100.00;100431.09;5010938;28;20057;-75
2022/02/28 06:05:07;;;;;;;13.93;10.52;;;;;;;3.76;100.00;100435.38;5000948;28;20416;-74
2022/02/28 06:07:32;;;;;;;3.58;2.15;;;;;;;3.96;100.00;100457.28;4990754;28;20037;-71
2022/02/28 06:09:58;;;;;;;3.03;1.92;;;;;;;3.70;100.00;100407.66;4990448;28;20034;-73
2022/02/28 06:12:24;;;;;;;3.50;2.20;;;;;;;3.57;100.00;100388.28;4991365;28;20038;-73
2022/02/28 06:14:49;;;;;;;3.08;2.00;;;;;;;3.90;100.00;100429.56;4991191;28;20022;-73
2022/02/28 06:17:15;;;;;;;3.22;1.60;;;;;;;3.83;100.00;100427.88;4991308;28;20026;-73
2022/02/28 06:19:40;;;;;;;2.70;1.60;;;;;;;4.11;100.00;100466.59;4991227;28;20030;-73
2022/02/28 06:22:06;;;;;;;10.60;6.93;;;;;;;4.11;100.00;100464.94;4991658;28;20027;-74
2022/02/28 06:24:31;;;;;;;3.30;2.30;;;;;;;4.06;100.00;100475.81;4991272;28;20117;-73
2022/02/28 06:26:57;;;;;;;6.45;4.10;;;;;;;3.72;100.00;100442.06;4995609;28;20149;-73
2022/02/28 06:29:22;;;;;;;8.48;4.85;;;;;;;3.76;100.00;100425.31;4995265;28;20037;-73
2022/02/28 06:31:48;;;;;;;22.88;13.70;;;;;;;3.92;100.00;100485.75;4995449;28;20475;-73
2022/02/28 06:34:13;;;;;;;50.22;24.50;;;;;;;3.90;100.00;100458.94;4994005;28;20564;-74
2022/02/28 06:36:40;;;;;;;6.65;3.28;;;;;;;4.24;100.00;100486.78;4994104;28;20042;-70
2022/02/28 06:39:07;;;;;;;19.55;9.70;;;;;;;4.35;100.00;100494.41;4994234;28;20033;-72
2022/02/28 06:41:32;;;;;;;64.80;27.30;;;;;;;4.13;100.00;100493.44;4995274;28;20034;-74
2022/02/28 06:43:58;;;;;;;157.70;65.93;;;;;;;3.98;100.00;100458.13;5010202;28;20023;-74
2022/02/28 06:46:23;;;;;;;150.32;64.80;;;;;;;3.92;100.00;100498.31;4995097;28;20038;-73
2022/02/28 06:48:49;;;;;;;66.82;32.33;;;;;;;3.99;100.00;100496.69;4994856;28;20154;-72
2022/02/28 06:51:15;;;;;;;10.43;5.03;;;;;;;4.15;100.00;100496.81;4995225;28;20042;-73
2022/02/28 06:53:41;;;;;;;7.60;3.67;;;;;;;4.01;100.00;100464.84;4995073;28;20023;-72
2022/02/28 06:56:08;;;;;;;91.40;30.50;;;;;;;4.21;100.00;100504.41;4995074;28;20030;-73
2022/02/28 06:58:34;;;;;;;223.55;78.03;;;;;;;3.97;100.00;100503.38;5010072;28;20389;-73
2022/02/28 07:00:59;;;;;;;123.65;47.15;;;;;;;4.01;100.00;100525.22;4994749;28;20053;-72
2022/02/28 07:03:25;;;;;;;9.23;4.85;;;;;;;4.18;100.00;100516.13;4994509;28;20050;-73
2022/02/28 07:05:52;;;;;;;18.27;9.20;;;;;;;4.17;100.00;100494.31;4994598;28;20037;-73
2022/02/28 07:08:19;;;;;;;5.90;3.67;;;;;;;4.25;100.00;100522.88;4994962;28;20064;-73
2022/02/28 07:10:47;;;;;;;3.72;1.90;;;;;;;4.29;100.00;100524.56;4994644;28;20096;-73
2022/02/28 07:13:13;;;;;;;5.65;2.80;;;;;;;4.38;100.00;100535.53;4994670;28;20065;-73
2022/02/28 07:15:43;;;;;;;4.93;2.22;;;;;;;4.47;100.00;100528.88;4994688;28;20049;-72
2022/02/28 07:18:09;;;;;;;5.65;2.75;;;;;;;4.51;100.00;100546.53;4994588;28;20030;-72
2022/02/28 07:20:35;;;;;;;7.03;3.03;;;;;;;4.24;100.00;100504.41;5010676;28;20038;-72
2022/02/28 07:23:01;;;;;;;7.10;3.20;;;;;;;4.38;100.00;100530.50;5013377;28;20030;-73
2022/02/28 07:25:26;;;;;;;5.28;2.60;;;;;;;4.48;100.00;100548.19;5013663;28;20037;-72
2022/02/28 07:27:52;;;;;;;5.18;2.55;;;;;;;4.24;100.00;100514.47;5013333;28;20022;-72
2022/02/28 07:30:18;;;;;;;3.80;2.42;;;;;;;4.49;100.00;100545.66;5013612;28;20034;-73
2022/02/28 07:32:43;;;;;;;4.40;2.20;;;;;;;4.52;100.00;100548.19;5013617;28;20034;-72
2022/02/28 07:35:10;;;;;;;4.75;3.03;;;;;;;4.13;100.00;100511.06;5014208;28;20491;-73
2022/02/28 07:37:35;;;;;;;4.10;2.60;;;;;;;4.20;100.00;100524.50;5013207;28;20435;-72
2022/02/28 07:40:05;;;;;;;4.03;2.08;;;;;;;4.24;100.00;100523.69;5012665;28;20040;-73
2022/02/28 07:42:31;;;;;;;3.15;2.10;;;;;;;4.19;100.00;100517.81;5013537;28;20029;-73
2022/02/28 07:44:57;;;;;;;2.70;1.95;;;;;;;4.25;100.00;100532.94;5013456;28;20099;-73
2022/02/28 07:47:22;;;;;;;3.95;2.50;;;;;;;4.50;100.00;100571.69;5013573;28;20096;-72
2022/02/28 07:49:48;;;;;;;3.55;2.33;;;;;;;4.65;100.00;100564.22;5013379;28;20034;-72
2022/02/28 07:52:13;;;;;;;3.58;2.00;;;;;;;4.43;100.00;100568.28;5013627;28;20038;-73
2022/02/28 07:54:39;;;;;;;2.20;1.85;;;;;;;4.47;100.00;100570.00;5013510;28;20026;-72
2022/02/28 07:57:04;;;;;;;3.50;2.13;;;;;;;4.30;100.00;100537.16;5013483;28;20053;-72
2022/02/28 07:59:30;;;;;;;2.80;2.00;;;;;;;4.50;100.00;100579.25;5013009;28;20034;-72
2022/02/28 08:01:55;;;;;;;2.63;1.80;;;;;;;4.53;100.00;100538.97;5013190;28;20413;-72
2022/02/28 08:04:21;;;;;;;2.30;1.73;;;;;;;4.30;100.00;100533.78;5012226;28;20044;-72
2022/02/28 08:06:46;;;;;;;2.45;1.45;;;;;;;4.40;100.00;100571.63;5011963;28;20022;-72
2022/02/28 08:09:11;;;;;;;3.05;1.73;;;;;;;4.44;100.00;100549.00;5013116;28;20109;-72
2022/02/28 08:11:37;;;;;;;3.30;2.30;;;;;;;4.33;100.00;100539.72;5012897;28;20037;-72
2022/02/28 08:14:03;;;;;;;4.07;1.83;;;;;;;4.74;100.00;100585.25;5012833;28;20022;-72
2022/02/28 08:16:29;;;;;;;1.70;1.30;;;;;;;4.41;100.00;100544.78;5013114;28;20117;-72
2022/02/28 08:18:54;;;;;;;1.98;1.30;;;;;;;4.73;100.00;100583.56;5012870;28;20065;-72
2022/02/28 08:21:20;;;;;;;2.20;1.45;;;;;;;4.51;100.00;100544.00;5013126;28;20456;-73
2022/02/28 08:23:45;;;;;;;4.28;2.65;;;;;;;4.70;100.00;100580.16;5012815;28;20041;-68
2022/02/28 08:26:11;;;;;;;3.17;2.47;;;;;;;4.67;100.00;100553.31;5012726;28;20032;-72
2022/02/28 08:28:36;;;;;;;3.25;2.17;;;;;;;5.08;100.00;100594.66;5012930;28;20034;-72
2022/02/28 08:31:02;;;;;;;3.60;1.95;;;;;;;5.02;100.00;100534.16;5012620;28;20129;-73
2022/02/28 08:33:27;;;;;;;3.25;2.13;;;;;;;4.86;100.00;100561.78;5012611;28;20022;-72
2022/02/28 08:35:53;;;;;;;3.75;2.38;;;;;;;4.88;100.00;100571.03;5012619;28;20033;-72
2022/02/28 08:38:18;;;;;;;2.67;1.70;;;;;;;5.09;100.00;100603.88;5012489;28;20439;-72
2022/02/28 08:40:44;;;;;;;4.85;2.65;;;;;;;5.39;100.00;100605.66;5012187;28;20419;-73
2022/02/28 08:43:11;;;;;;;4.90;2.63;;;;;;;4.94;100.00;100573.59;5011915;28;20404;-72
2022/02/28 08:45:36;;;;;;;6.60;3.40;;;;;;;5.40;100.00;100601.47;5012290;28;20057;-72
2022/02/28 08:48:03;;;;;;;2.47;1.77;;;;;;;5.43;100.00;100614.09;5011305;28;20480;-73
2022/02/28 08:50:28;;;;;;;4.40;2.20;;;;;;;5.46;100.00;100581.31;5011107;28;20049;-73
2022/02/28 08:52:54;;;;;;;1.90;1.50;;;;;;;5.44;100.00;100573.75;5012388;28;20029;-73
2022/02/28 08:55:19;;;;;;;2.78;1.90;;;;;;;5.44;100.00;100613.25;5012213;28;20092;-73
2022/02/28 08:57:44;;;;;;;2.75;2.00;;;;;;;5.37;100.00;100576.25;5011944;28;20057;-73
2022/02/28 09:00:11;;;;;;;1.65;1.17;;;;;;;5.14;100.00;100617.34;5012081;28;20420;-73
2022/02/28 09:02:37;;;;;;;2.05;1.42;;;;;;;5.52;100.00;100609.06;5012701;28;20086;-73
2022/02/28 09:05:03;;;;;;;2.92;1.90;;;;;;;5.48;100.00;100598.13;5012109;28;20045;-74
2022/02/28 09:07:28;;;;;;;7.00;3.60;;;;;;;5.89;100.00;100601.59;5011836;28;20030;-73
2022/02/28 09:09:54;;;;;;;4.82;3.35;;;;;;;5.72;100.00;100585.59;5010787;28;20558;-72
2022/02/28 09:12:19;;;;;;;1.40;1.20;;;;;;;5.63;100.00;100602.34;5011733;28;20117;-72
2022/02/28 09:14:45;;;;;;;4.53;2.22;;;;;;;6.08;100.00;100570.47;5011998;28;20040;-72
2022/02/28 09:17:10;;;;;;;3.33;2.20;;;;;;;6.20;100.00;100599.91;5012167;28;20053;-72
2022/02/28 09:19:36;;;;;;;2.65;1.77;;;;;;;6.15;100.00;100619.28;5011739;28;20042;-74
2022/02/28 09:22:01;;;;;;;3.05;1.83;;;;;;;6.20;100.00;100614.22;5012218;28;20495;-73
2022/02/28 09:24:28;;;;;;;2.05;1.10;;;;;;;5.86;100.00;100626.00;5012008;28;20034;-72
2022/02/28 09:26:55;;;;;;;2.50;1.60;;;;;;;5.80;100.00;100588.91;5011492;28;20026;-72
2022/02/28 09:29:21;;;;;;;2.35;1.65;;;;;;;5.94;100.00;100604.13;5011605;28;20100;-72
2022/02/28 09:31:46;;;;;;;2.53;1.83;;;;;;;6.36;100.00;100619.25;5009668;28;20038;-73
2022/02/28 09:34:12;;;;;;;2.65;1.70;;;;;;;6.57;100.00;100575.47;5011608;28;20037;-72
2022/02/28 09:36:37;;;;;;;4.00;1.42;;;;;;;5.91;100.00;100604.13;5011826;28;20466;-71
2022/02/28 09:39:03;;;;;;;1.25;1.00;;;;;;;5.75;100.00;100562.00;5011548;28;20484;-72
2022/02/28 09:41:29;;;;;;;2.22;1.60;;;;;;;6.63;100.00;100600.72;5011633;28;20022;-72
2022/02/28 09:43:56;;;;;;;3.38;2.03;;;;;;;6.29;100.00;100611.69;5011241;28;20079;-71
2022/02/28 09:46:22;;;;;;;3.10;2.10;;;;;;;6.58;100.00;100617.53;5011450;28;20033;-71
2022/02/28 09:48:48;;;;;;;4.95;3.22;;;;;;;6.23;100.00;100567.09;5011530;28;20037;-71
2022/02/28 09:51:14;;;;;;;4.75;2.60;;;;;;;6.63;100.00;100616.72;5011539;28;20033;-71
2022/02/28 09:53:39;;;;;;;3.92;2.60;;;;;;;7.12;100.00;100611.50;5011044;28;20034;-71
2022/02/28 09:56:05;;;;;;;3.63;2.97;;;;;;;6.96;100.00;100580.41;5010908;28;20034;-72
2022/02/28 09:58:31;;;;;;;4.60;3.25;;;;;;;6.86;100.00;100614.97;5010525;28;20030;-72
2022/02/28 10:00:59;;;;;;;4.35;2.72;;;;;;;6.62;100.00;100616.69;5001087;28;20030;-71
2022/02/28 10:03:25;;;;;;;3.60;2.22;;;;;;;6.40;100.00;100585.59;4995222;28;20049;-72
2022/02/28 10:05:58;;;;;;;2.47;1.67;;;;;;;6.25;100.00;100574.66;4995249;28;20161;-71
2022/02/28 10:08:24;;;;;;;2.33;1.70;;;;;;;6.34;100.00;100584.78;4995434;28;20473;-72
2022/02/28 10:10:50;;;;;;;3.15;2.00;;;;;;;6.15;100.00;100619.28;4997767;28;20424;-72
2022/02/28 10:13:25;;;;;;;3.80;2.50;;;;;;;6.35;100.00;100582.25;5000720;28;20121;-71
2022/02/28 10:15:51;;;;;;;2.45;1.90;;;;;;;6.35;100.00;100622.63;4995108;28;20042;-71
2022/02/28 10:18:16;;;;;;;2.55;1.90;;;;;;;5.63;100.00;100597.31;4994836;28;20081;-71
2022/02/28 10:20:42;;;;;;;3.25;1.80;;;;;;;5.46;100.00;100593.91;4995161;28;20030;-71
2022/02/28 10:23:08;;;;;;;2.97;2.22;;;;;;;5.70;100.00;100644.41;4995235;28;20058;-71
2022/02/28 10:25:39;;;;;;;2.83;2.15;;;;;;;5.33;100.00;100648.50;4995070;28;20094;-72
2022/02/28 10:28:15;;;;;;;2.45;1.70;;;;;;;5.39;100.00;100640.13;4995582;28;20031;-72
2022/02/28 10:30:51;;;;;;;5.53;2.95;;;;;;;5.96;100.00;100632.72;4995674;28;20121;-74
2022/02/28 10:33:17;;;;;;;5.10;2.83;;;;;;;6.17;100.00;100626.84;4995449;28;20026;-72
2022/02/28 10:36:00;;;;;;;4.28;2.70;;;;;;;6.27;100.00;100618.44;4994869;28;20037;-74
2022/02/28 10:38:32;;;;;;;4.78;2.88;;;;;;;6.45;100.00;100611.69;4995503;28;20078;-73
2022/02/28 10:40:59;;;;;;;3.45;2.25;;;;;;;7.50;100.00;100622.31;4994979;28;20030;-73
2022/02/28 10:43:26;;;;;;;2.75;2.20;;;;;;;7.12;100.00;100630.06;4995023;28;20041;-73
2022/02/28 10:45:52;;;;;;;3.28;1.75;;;;;;;6.04;100.00;100604.13;4994478;28;20034;-75
2022/02/28 10:48:17;;;;;;;3.75;2.63;;;;;;;6.94;100.00;100589.66;4994700;28;20566;-73
2022/02/28 10:50:43;;;;;;;3.63;2.20;;;;;;;6.23;100.00;100602.44;4994712;28;20045;-74
2022/02/28 10:53:16;;;;;;;3.63;2.17;;;;;;;6.79;100.00;100584.69;4995079;28;20448;-73
2022/02/28 10:55:44;;;;;;;2.83;2.28;;;;;;;5.96;100.00;100595.69;4994652;28;20113;-73
2022/02/28 10:58:12;;;;;;;3.17;1.75;;;;;;;6.37;100.00;100595.69;4993815;28;20033;-73
2022/02/28 11:01:00;;;;;;;2.53;1.90;;;;;;;6.39;100.00;100639.47;4994698;28;20034;-73
2022/02/28 11:03:28;;;;;;;2.92;1.77;;;;;;;6.31;100.00;100590.66;5009519;28;20046;-71
2022/02/28 11:05:55;;;;;;;1.98;1.60;;;;;;;6.04;100.00;100623.50;5010033;28;20121;-74
2022/02/28 11:08:22;;;;;;;2.65;1.83;;;;;;;7.43;100.00;100628.22;5014271;28;20033;-73
2022/02/28 11:10:49;;;;;;;2.60;2.00;;;;;;;7.76;100.00;100635.66;5011496;28;20419;-73
2022/02/28 11:13:15;;;;;;;2.38;1.90;;;;;;;6.74;100.00;100627.63;4998454;28;20041;-73
2022/02/28 11:15:41;;;;;;;2.95;2.03;;;;;;;7.13;100.00;100631.72;4996110;28;20034;-72
2022/02/28 11:18:13;;;;;;;2.83;1.92;;;;;;;6.62;100.00;100645.34;5012909;28;20053;-71
2022/02/28 11:20:39;;;;;;;2.20;1.98;;;;;;;6.02;100.00;100610.84;5000118;28;20023;-72